createdAt,value
2018-08-09T00:00:18.210Z,10.53
2018-08-09T00:02:45.537Z,11.20
2018-08-09T00:05:12.866Z,9.80
2018-08-09T00:07:40.160Z,11.90
2018-08-09T00:10:07.409Z,10.87
2018-08-09T00:12:34.685Z,12.10
2018-08-09T00:15:02.004Z,12.10
2018-08-09T00:17:29.327Z,10.23
2018-08-09T00:19:56.655Z,10.90
2018-08-09T00:22:23.952Z,12.57
2018-08-09T00:24:51.289Z,11.37
2018-08-09T00:27:18.554Z,12.20
2018-08-09T00:29:45.914Z,11.40
2018-08-09T00:32:13.206Z,10.80
2018-08-09T00:34:40.463Z,13.10
2018-08-09T00:37:07.769Z,10.40
2018-08-09T00:39:35.028Z,10.50
2018-08-09T00:42:02.299Z,11.00
2018-08-09T00:44:29.635Z,11.23
2018-08-09T00:46:56.897Z,10.40
2018-08-09T00:49:24.276Z,10.50
2018-08-09T00:51:51.604Z,10.43
2018-08-09T00:54:18.861Z,10.13
2018-08-09T00:56:46.139Z,11.07
2018-08-09T00:59:13.437Z,12.10
2018-08-09T01:01:41.831Z,10.60
2018-08-09T01:04:09.126Z,11.40
2018-08-09T01:06:36.402Z,11.20
2018-08-09T01:09:06.902Z,12.27
2018-08-09T01:11:34.561Z,10.40
2018-08-09T01:14:01.988Z,10.77
2018-08-09T01:16:29.275Z,12.70
2018-08-09T01:18:56.552Z,10.73
2018-08-09T01:21:23.847Z,10.07
2018-08-09T01:23:51.142Z,10.17
2018-08-09T01:26:18.478Z,12.10
2018-08-09T01:28:45.777Z,11.27
2018-08-09T01:31:13.003Z,10.23
2018-08-09T01:33:40.227Z,11.50
2018-08-09T01:36:07.521Z,10.07
2018-08-09T01:38:34.813Z,10.57
2018-08-09T01:41:02.261Z,11.67
2018-08-09T01:43:40.773Z,10.07
2018-08-09T01:46:08.172Z,10.20
2018-08-09T01:48:35.538Z,9.67
2018-08-09T01:51:02.910Z,10.23
2018-08-09T01:53:30.175Z,9.77
2018-08-09T01:55:57.442Z,12.17
2018-08-09T01:58:24.732Z,10.90
2018-08-09T02:00:51.926Z,10.60
2018-08-09T02:03:19.198Z,11.93
2018-08-09T02:05:46.507Z,11.20
2018-08-09T02:08:13.770Z,10.90
2018-08-09T02:10:41.040Z,10.50
2018-08-09T02:13:08.327Z,10.10
2018-08-09T02:15:35.659Z,11.40
2018-08-09T02:18:02.952Z,11.20
2018-08-09T02:20:30.341Z,11.70
2018-08-09T02:22:57.670Z,10.77
2018-08-09T02:25:24.965Z,11.97
2018-08-09T02:27:52.266Z,11.43
2018-08-09T02:30:19.511Z,12.30
2018-08-09T02:32:46.780Z,11.80
2018-08-09T02:35:14.084Z,13.27
2018-08-09T02:37:41.341Z,11.90
2018-08-09T02:40:08.578Z,11.10
2018-08-09T02:42:35.861Z,10.40
2018-08-09T02:45:03.137Z,10.60
2018-08-09T02:47:30.496Z,11.07
2018-08-09T02:49:57.788Z,11.50
2018-08-09T02:52:25.069Z,11.27
2018-08-09T02:54:52.383Z,11.13
2018-08-09T02:57:19.656Z,11.10
2018-08-09T02:59:46.920Z,10.87
2018-08-09T03:02:14.339Z,12.00
2018-08-09T03:04:41.662Z,11.43
2018-08-09T03:07:09.130Z,11.70
2018-08-09T03:09:36.381Z,10.50
2018-08-09T03:12:03.706Z,12.50
2018-08-09T03:14:31.055Z,12.43
2018-08-09T03:16:58.335Z,11.20
2018-08-09T03:19:25.612Z,11.43
2018-08-09T03:21:52.911Z,11.00
2018-08-09T03:24:20.189Z,10.60
2018-08-09T03:26:47.544Z,10.90
2018-08-09T03:29:14.818Z,11.07
2018-08-09T03:31:42.109Z,9.90
2018-08-09T03:34:09.348Z,11.13
2018-08-09T03:36:36.648Z,10.83
2018-08-09T03:39:06.486Z,12.63
2018-08-09T03:41:33.789Z,12.00
2018-08-09T03:44:01.024Z,12.10
2018-08-09T03:46:28.293Z,12.70
2018-08-09T03:48:55.593Z,10.50
2018-08-09T03:51:22.818Z,10.67
2018-08-09T03:53:50.221Z,10.60
2018-08-09T03:56:17.508Z,10.60
2018-08-09T03:58:44.818Z,9.23
2018-08-09T04:01:12.171Z,11.10
2018-08-09T04:03:39.463Z,12.10
2018-08-09T04:06:06.758Z,11.20
2018-08-09T04:08:34.069Z,11.83
2018-08-09T04:11:01.315Z,11.87
2018-08-09T04:13:28.643Z,12.30
2018-08-09T04:15:55.850Z,12.30
2018-08-09T04:18:23.139Z,11.67
2018-08-09T04:20:50.364Z,13.60
2018-08-09T04:23:17.606Z,12.10
2018-08-09T04:25:44.899Z,12.30
2018-08-09T04:28:12.156Z,11.07
2018-08-09T04:30:39.499Z,12.10
2018-08-09T04:33:06.826Z,12.00
2018-08-09T04:35:34.148Z,11.90
2018-08-09T04:38:01.467Z,11.80
2018-08-09T04:40:28.737Z,11.87
2018-08-09T04:42:55.971Z,11.07
2018-08-09T04:45:23.286Z,10.00
2018-08-09T04:47:50.552Z,10.90
2018-08-09T04:50:17.805Z,10.80
2018-08-09T04:52:45.112Z,12.40
2018-08-09T04:55:12.353Z,12.63
2018-08-09T04:57:39.582Z,12.57
2018-08-09T05:00:06.905Z,13.37
2018-08-09T05:02:34.177Z,13.27
2018-08-09T05:05:01.388Z,13.30
2018-08-09T05:07:28.723Z,11.93
2018-08-09T05:10:00.066Z,13.10
2018-08-09T05:12:27.301Z,14.00
2018-08-09T05:14:54.493Z,11.93
2018-08-09T05:17:21.777Z,13.20
2018-08-09T05:19:48.968Z,13.60
2018-08-09T05:22:16.285Z,13.30
2018-08-09T05:24:43.541Z,13.20
2018-08-09T05:27:10.892Z,15.23
2018-08-09T05:29:38.206Z,14.27
2018-08-09T05:32:05.612Z,13.40
2018-08-09T05:34:32.862Z,13.30
2018-08-09T05:37:00.147Z,15.10
2018-08-09T05:39:27.420Z,13.73
2018-08-09T05:41:54.679Z,11.73
2018-08-09T05:44:21.954Z,13.30
2018-08-09T05:46:49.244Z,12.53
2018-08-09T05:49:16.538Z,14.20
2018-08-09T05:51:43.786Z,13.40
2018-08-09T05:54:11.026Z,12.67
2018-08-09T05:56:38.331Z,13.47
2018-08-09T05:59:05.607Z,12.20
2018-08-09T06:01:32.859Z,13.70
2018-08-09T06:04:00.159Z,13.30
2018-08-09T06:06:27.575Z,13.27
2018-08-09T06:08:54.823Z,11.90
2018-08-09T06:11:22.112Z,12.97
2018-08-09T06:13:49.422Z,12.17
2018-08-09T06:16:16.755Z,12.03
2018-08-09T06:18:44.074Z,10.90
2018-08-09T06:21:11.908Z,9.40
2018-08-09T06:23:39.222Z,9.53
2018-08-09T06:26:06.742Z,8.93
2018-08-09T06:28:34.106Z,9.03
2018-08-09T06:31:01.442Z,10.03
2018-08-09T06:33:31.320Z,8.97
2018-08-09T06:35:59.051Z,7.73
2018-08-09T06:38:26.393Z,9.80
2018-08-09T06:40:53.646Z,9.53
2018-08-09T06:43:20.934Z,9.30
2018-08-09T06:45:48.221Z,7.60
2018-08-09T06:48:15.501Z,8.40
2018-08-09T06:50:42.808Z,10.17
2018-08-09T06:53:10.146Z,7.73
2018-08-09T06:55:37.394Z,8.77
2018-08-09T06:58:05.147Z,8.33
2018-08-09T07:00:32.465Z,9.13
2018-08-09T07:02:59.756Z,7.00
2018-08-09T07:05:27.061Z,7.83
2018-08-09T07:07:54.341Z,8.30
2018-08-09T07:10:21.612Z,8.30
2018-08-09T07:14:18.475Z,8.30
2018-08-09T07:16:45.809Z,8.30
2018-08-09T07:19:13.010Z,8.67
2018-08-09T07:21:40.346Z,8.40
2018-08-09T07:24:07.747Z,7.83
2018-08-09T07:27:37.886Z,9.03
2018-08-09T07:30:07.119Z,8.43
2018-08-09T07:32:34.428Z,8.50
2018-08-09T07:35:01.832Z,9.50
2018-08-09T07:37:29.182Z,8.37
2018-08-09T07:39:56.477Z,9.13
2018-08-09T07:42:23.768Z,8.93
2018-08-09T07:44:50.978Z,8.73
2018-08-09T07:47:18.235Z,8.33
2018-08-09T07:49:45.509Z,8.23
2018-08-09T07:52:12.778Z,7.80
2018-08-09T07:54:40.103Z,8.87
2018-08-09T07:57:07.427Z,8.00
2018-08-09T07:59:34.660Z,7.40
2018-08-09T08:02:01.920Z,9.77
2018-08-09T08:04:29.186Z,7.70
2018-08-09T08:06:56.651Z,8.87
2018-08-09T08:09:23.914Z,8.80
2018-08-09T08:11:51.100Z,8.20
2018-08-09T08:14:18.376Z,8.53
2018-08-09T08:16:45.761Z,8.40
2018-08-09T08:19:13.107Z,8.50
2018-08-09T08:21:40.406Z,8.33
2018-08-09T08:24:07.668Z,6.87
2018-08-09T08:26:35.133Z,7.10
2018-08-09T08:29:02.469Z,8.73
2018-08-09T08:31:29.761Z,7.67
2018-08-09T08:33:57.006Z,7.80
2018-08-09T08:36:24.272Z,7.40
2018-08-09T08:38:51.523Z,7.20
2018-08-09T08:41:18.877Z,7.20
2018-08-09T08:43:46.199Z,7.30
2018-08-09T08:46:13.494Z,7.53
2018-08-09T08:48:40.763Z,6.17
2018-08-09T08:51:08.017Z,5.80
2018-08-09T08:53:35.394Z,6.50
2018-08-09T08:56:02.661Z,7.30
2018-08-09T08:58:29.945Z,6.60
2018-08-09T09:00:57.223Z,5.80
2018-08-09T09:03:24.480Z,6.10
2018-08-09T09:05:51.832Z,5.50
2018-08-09T09:08:19.104Z,6.20
2018-08-09T09:10:50.873Z,5.60
2018-08-09T09:13:18.212Z,5.37
2018-08-09T09:15:45.559Z,5.23
2018-08-09T09:18:12.863Z,5.80
2018-08-09T09:20:40.164Z,7.20
2018-08-09T09:23:07.682Z,5.67
2018-08-09T09:25:34.970Z,5.80
2018-08-09T09:28:02.387Z,5.80
2018-08-09T09:30:29.678Z,6.00
2018-08-09T09:32:57.058Z,6.10
2018-08-09T09:35:24.372Z,5.60
2018-08-09T09:37:51.631Z,6.77
2018-08-09T09:40:18.928Z,6.60
2018-08-09T09:42:46.290Z,6.47
2018-08-09T09:45:13.607Z,25.63
2018-08-09T09:47:40.905Z,6.47
2018-08-09T09:50:09.137Z,5.80
2018-08-09T09:52:36.422Z,7.10
2018-08-09T09:55:04.099Z,5.73
2018-08-09T09:57:31.403Z,5.90
2018-08-09T09:59:58.684Z,6.07
2018-08-09T10:02:26.009Z,5.67
2018-08-09T10:04:53.274Z,5.90
2018-08-09T10:07:20.553Z,6.00
2018-08-09T10:09:47.805Z,5.00
2018-08-09T10:12:15.167Z,5.50
2018-08-09T10:14:42.455Z,5.03
2018-08-09T10:17:09.754Z,6.43
2018-08-09T10:19:37.680Z,5.23
2018-08-09T10:22:04.996Z,5.00
2018-08-09T10:24:32.269Z,5.20
2018-08-09T10:26:59.665Z,5.27
2018-08-09T10:29:26.980Z,5.03
2018-08-09T10:31:54.224Z,5.60
2018-08-09T10:34:21.552Z,5.40
2018-08-09T10:36:48.858Z,5.43
2018-08-09T10:39:16.119Z,4.40
2018-08-09T10:41:43.405Z,5.33
2018-08-09T10:44:10.741Z,5.23
2018-08-09T10:46:37.998Z,4.90
2018-08-09T10:49:05.287Z,4.10
2018-08-09T10:51:32.600Z,5.20
2018-08-09T10:53:59.984Z,5.10
2018-08-09T10:56:27.354Z,6.90
2018-08-09T10:58:54.627Z,4.33
2018-08-09T11:01:22.022Z,4.90
2018-08-09T11:03:49.340Z,5.37
2018-08-09T11:06:16.546Z,4.20
2018-08-09T11:08:43.948Z,4.37
2018-08-09T11:11:11.753Z,4.87
2018-08-09T11:13:40.375Z,4.57
2018-08-09T11:16:07.720Z,4.10
2018-08-09T11:18:34.967Z,4.10
2018-08-09T11:21:02.263Z,4.50
2018-08-09T11:23:29.986Z,4.17
2018-08-09T11:25:57.835Z,4.23
2018-08-09T11:28:25.161Z,4.50
2018-08-09T11:30:52.473Z,4.83
2018-08-09T11:33:19.782Z,4.30
2018-08-09T11:35:47.032Z,4.17
2018-08-09T11:38:14.368Z,4.27
2018-08-09T11:40:41.650Z,5.00
2018-08-09T11:43:09.040Z,4.80
2018-08-09T11:45:36.365Z,4.00
2018-08-09T11:48:03.715Z,4.40
2018-08-09T11:50:31.153Z,4.43
2018-08-09T11:52:58.630Z,4.73
2018-08-09T11:55:25.898Z,4.57
2018-08-09T11:57:53.206Z,3.87
2018-08-09T12:00:20.685Z,3.80
2018-08-09T12:02:48.004Z,3.93
2018-08-09T12:05:15.288Z,3.70
2018-08-09T12:07:42.806Z,3.67
2018-08-09T12:10:10.190Z,3.50
2018-08-09T12:12:37.468Z,3.50
2018-08-09T12:15:05.796Z,4.20
2018-08-09T12:17:33.142Z,3.80
2018-08-09T12:20:00.596Z,3.47
2018-08-09T12:22:27.882Z,3.53
2018-08-09T12:24:55.248Z,4.00
2018-08-09T12:27:22.582Z,4.10
2018-08-09T12:29:49.866Z,4.27
2018-08-09T12:32:17.212Z,3.40
2018-08-09T12:34:44.495Z,4.80
2018-08-09T12:37:11.901Z,3.70
2018-08-09T12:39:39.278Z,4.43
2018-08-09T12:42:06.697Z,4.00
2018-08-09T12:44:33.980Z,3.90
2018-08-09T12:47:01.299Z,4.80
2018-08-09T12:49:28.680Z,4.40
2018-08-09T12:51:55.994Z,4.00
2018-08-09T12:57:16.412Z,9.70
2018-08-09T12:59:43.732Z,4.03
2018-08-09T13:02:10.995Z,4.17
2018-08-09T13:04:38.394Z,4.57
2018-08-09T13:07:05.781Z,3.40
2018-08-09T13:09:33.130Z,3.10
2018-08-09T13:12:00.475Z,2.27
2018-08-09T13:14:27.771Z,2.17
2018-08-09T13:16:55.212Z,2.63
2018-08-09T13:19:22.477Z,3.43
2018-08-09T13:21:51.016Z,2.87
2018-08-09T13:24:19.454Z,3.53
2018-08-09T13:26:46.815Z,2.80
2018-08-09T13:29:14.249Z,4.77
2018-08-09T13:31:41.582Z,3.67
2018-08-09T13:34:09.368Z,3.90
2018-08-09T13:36:36.709Z,3.80
2018-08-09T13:39:07.636Z,3.90
2018-08-09T13:41:34.933Z,4.17
2018-08-09T13:44:02.317Z,5.30
2018-08-09T13:46:29.604Z,4.67
2018-08-09T13:48:56.974Z,3.80
2018-08-09T13:51:26.702Z,3.93
2018-08-09T13:53:54.942Z,4.37
2018-08-09T13:56:22.297Z,4.33
2018-08-09T13:58:49.628Z,4.53
2018-08-09T14:01:16.983Z,4.60
2018-08-09T14:03:44.284Z,4.90
2018-08-09T14:06:11.550Z,4.50
2018-08-09T14:08:38.869Z,4.50
2018-08-09T14:11:06.194Z,5.00
2018-08-09T14:13:33.518Z,4.40
2018-08-09T14:16:00.889Z,4.50
2018-08-09T14:18:28.187Z,4.03
2018-08-09T14:20:55.501Z,4.10
2018-08-09T14:23:22.860Z,4.27
2018-08-09T14:25:50.197Z,3.70
2018-08-09T14:28:17.532Z,3.70
2018-08-09T14:30:44.824Z,3.27
2018-08-09T14:33:12.131Z,4.23
2018-08-09T14:35:39.561Z,4.40
2018-08-09T14:38:06.880Z,3.40
2018-08-09T14:40:34.237Z,5.13
2018-08-09T14:43:01.616Z,4.17
2018-08-09T14:45:29.056Z,3.80
2018-08-09T14:47:56.424Z,4.53
2018-08-09T14:50:23.894Z,3.60
2018-08-09T14:52:51.194Z,3.93
2018-08-09T14:55:18.515Z,4.27
2018-08-09T14:57:45.936Z,4.10
2018-08-09T15:00:16.015Z,3.60
2018-08-09T15:02:44.078Z,4.30
2018-08-09T15:05:11.393Z,3.33
2018-08-09T15:07:38.749Z,4.00
2018-08-09T15:10:06.270Z,3.00
2018-08-09T15:12:33.617Z,3.63
2018-08-09T15:15:00.947Z,4.17
2018-08-09T15:17:28.281Z,4.20
2018-08-09T15:19:55.551Z,4.47
2018-08-09T15:22:22.870Z,4.30
2018-08-09T15:24:50.286Z,4.03
2018-08-09T15:27:17.581Z,3.67
2018-08-09T15:29:44.867Z,3.63
2018-08-09T15:32:12.287Z,3.73
2018-08-09T15:34:39.623Z,4.00
2018-08-09T15:37:06.895Z,4.30
2018-08-09T15:39:34.193Z,4.13
2018-08-09T15:42:01.529Z,4.10
2018-08-09T15:44:28.915Z,3.50
2018-08-09T15:46:56.241Z,3.63
2018-08-09T15:49:23.568Z,5.10
2018-08-09T15:51:50.883Z,3.97
2018-08-09T15:54:18.133Z,3.17
2018-08-09T15:56:45.616Z,3.80
2018-08-09T15:59:12.893Z,3.57
2018-08-09T16:01:42.484Z,3.33
2018-08-09T16:04:09.861Z,3.43
2018-08-09T16:06:37.997Z,3.60
2018-08-09T16:09:09.432Z,9.23
2018-08-09T16:11:36.762Z,4.50
2018-08-09T16:14:04.129Z,5.03
2018-08-09T16:16:31.525Z,5.67
2018-08-09T16:18:58.768Z,4.27
2018-08-09T16:21:26.134Z,3.93
2018-08-09T16:23:53.567Z,3.57
2018-08-09T16:26:20.899Z,3.80
2018-08-09T16:28:48.268Z,3.23
2018-08-09T16:31:15.645Z,3.10
2018-08-09T16:33:42.921Z,3.17
2018-08-09T16:36:10.292Z,3.03
2018-08-09T16:38:37.592Z,4.33
2018-08-09T16:41:04.972Z,3.53
2018-08-09T16:43:32.273Z,3.13
2018-08-09T16:45:59.748Z,3.03
2018-08-09T16:48:27.109Z,3.30
2018-08-09T16:50:54.430Z,2.60
2018-08-09T16:53:21.720Z,3.00
2018-08-09T16:55:49.035Z,2.90
2018-08-09T16:58:16.419Z,3.80
2018-08-09T17:00:43.696Z,3.13
2018-08-09T17:03:11.038Z,2.30
2018-08-09T17:05:38.302Z,3.10
2018-08-09T17:08:05.583Z,3.33
2018-08-09T17:10:32.819Z,2.90
2018-08-09T17:13:00.171Z,2.10
2018-08-09T17:15:28.488Z,2.40
2018-08-09T17:17:56.300Z,2.17
2018-08-09T17:20:28.582Z,3.07
2018-08-09T17:22:56.161Z,2.33
2018-08-09T17:25:23.584Z,2.73
2018-08-09T17:27:51.074Z,2.20
2018-08-09T17:30:19.828Z,2.20
2018-08-09T17:32:47.176Z,2.43
2018-08-09T17:35:15.402Z,2.47
2018-08-09T17:37:42.875Z,2.47
2018-08-09T17:40:18.038Z,2.60
2018-08-09T17:42:46.199Z,2.50
2018-08-09T17:45:13.783Z,2.53
2018-08-09T17:47:41.121Z,2.60
2018-08-09T17:50:08.723Z,2.33
2018-08-09T17:52:43.336Z,2.90
2018-08-09T17:55:12.360Z,2.03
2018-08-09T17:57:40.603Z,2.50
2018-08-09T18:00:12.176Z,2.00
2018-08-09T18:02:39.610Z,2.50
2018-08-09T18:05:08.617Z,3.07
2018-08-09T18:07:36.205Z,2.63
2018-08-09T18:10:05.462Z,2.90
2018-08-09T18:12:32.718Z,3.30
2018-08-09T18:15:00.015Z,2.33
2018-08-09T18:17:27.412Z,2.13
2018-08-09T18:19:54.776Z,2.70
2018-08-09T18:22:22.666Z,2.43
2018-08-09T18:24:49.957Z,2.70
2018-08-09T18:27:17.284Z,2.70
2018-08-09T18:29:44.624Z,3.67
2018-08-09T18:32:12.035Z,2.57
2018-08-09T18:34:39.341Z,2.40
2018-08-09T18:37:07.070Z,2.50
2018-08-09T18:39:34.365Z,2.30
2018-08-09T18:42:01.694Z,2.37
2018-08-09T18:44:28.986Z,3.00
2018-08-09T18:46:56.342Z,2.20
2018-08-09T18:49:23.611Z,2.47
2018-08-09T18:51:50.978Z,2.30
2018-08-09T18:54:18.379Z,3.33
2018-08-09T18:56:49.597Z,2.80
2018-08-09T18:59:17.024Z,2.23
2018-08-09T19:01:45.090Z,3.30
2018-08-09T19:04:12.555Z,2.60
2018-08-09T19:06:39.875Z,2.57
2018-08-09T19:09:08.279Z,2.90
2018-08-09T19:11:35.666Z,3.20
2018-08-09T19:14:03.018Z,2.43
2018-08-09T19:16:30.404Z,3.27
2018-08-09T19:18:57.902Z,3.40
2018-08-09T19:21:25.191Z,3.10
2018-08-09T19:23:52.502Z,2.80
2018-08-09T19:26:19.774Z,2.40
2018-08-09T19:28:47.031Z,3.10
2018-08-09T19:31:14.416Z,3.00
2018-08-09T19:33:41.755Z,2.67
2018-08-09T19:36:09.166Z,2.97
2018-08-09T19:38:36.459Z,3.57
2018-08-09T19:41:03.863Z,3.17
2018-08-09T19:43:31.196Z,3.20
2018-08-09T19:45:58.540Z,3.23
2018-08-09T19:48:25.993Z,2.80
2018-08-09T19:50:53.348Z,3.70
2018-08-09T19:53:20.655Z,2.50
2018-08-09T19:55:48.016Z,2.60
2018-08-09T19:58:15.415Z,3.23
2018-08-09T20:00:42.810Z,3.10
2018-08-09T20:03:10.122Z,3.70
2018-08-09T20:05:37.428Z,3.20
2018-08-09T20:08:04.752Z,3.50
2018-08-09T20:10:32.190Z,2.93
2018-08-09T20:12:59.513Z,3.20
2018-08-09T20:15:26.932Z,3.07
2018-08-09T20:17:54.321Z,3.30
2018-08-09T20:20:23.380Z,2.60
2018-08-09T20:22:50.896Z,2.23
2018-08-09T20:25:18.163Z,2.70
2018-08-09T20:27:46.062Z,2.83
2018-08-09T20:30:14.754Z,2.17
2018-08-09T20:32:42.716Z,2.53
2018-08-09T20:35:13.546Z,2.90
2018-08-09T20:37:41.521Z,2.30
2018-08-09T20:40:09.777Z,2.30
2018-08-09T20:42:37.495Z,2.70
2018-08-09T20:45:27.349Z,3.50
2018-08-09T20:47:54.721Z,3.27
2018-08-09T20:50:23.915Z,2.60
2018-08-09T20:52:51.488Z,3.33
2018-08-09T20:55:18.902Z,5.67
2018-08-09T20:57:46.898Z,2.63
2018-08-09T21:00:16.923Z,2.83
2018-08-09T21:02:45.324Z,3.17
2018-08-09T21:05:19.344Z,2.33
2018-08-09T21:07:46.721Z,43.87
2018-08-09T21:10:14.381Z,2.90
2018-08-09T21:12:49.512Z,2.63
2018-08-09T21:15:17.801Z,2.93
2018-08-09T21:17:45.092Z,3.13
2018-08-09T21:21:42.030Z,2.90
2018-08-09T21:24:09.397Z,3.10
2018-08-09T21:26:36.709Z,2.50
2018-08-09T21:29:04.372Z,2.47
2018-08-09T21:31:31.694Z,2.40
2018-08-09T21:33:59.038Z,3.17
2018-08-09T21:39:19.389Z,2.70
2018-08-09T21:41:46.789Z,2.33
2018-08-09T21:44:14.109Z,2.63
2018-08-09T21:46:41.517Z,2.20
2018-08-09T21:49:08.900Z,2.90
2018-08-09T21:51:36.181Z,1.90
2018-08-09T21:54:03.612Z,2.60
2018-08-09T21:56:30.879Z,2.90
2018-08-09T21:59:08.348Z,2.80
2018-08-09T22:01:56.449Z,2.40
2018-08-09T22:04:23.828Z,2.73
2018-08-09T22:06:56.879Z,2.80
2018-08-09T22:09:29.987Z,2.30
2018-08-09T22:12:03.110Z,2.60
2018-08-09T22:14:36.199Z,2.30
2018-08-09T22:17:09.323Z,2.17
2018-08-09T22:19:42.430Z,2.17
2018-08-09T22:22:11.327Z,2.00
2018-08-09T22:24:38.904Z,1.60
2018-08-09T22:27:06.712Z,1.83
2018-08-09T22:29:34.048Z,1.63
2018-08-09T22:32:01.404Z,1.60
2018-08-09T22:34:28.686Z,1.50
2018-08-09T22:36:55.984Z,1.60
2018-08-09T22:39:23.389Z,1.50
2018-08-09T22:41:50.685Z,1.70
2018-08-09T22:44:17.996Z,1.90
2018-08-09T22:46:45.329Z,1.30
2018-08-09T22:49:12.605Z,1.57
2018-08-09T22:51:39.990Z,1.60
2018-08-09T22:54:07.428Z,1.53
2018-08-09T22:56:34.746Z,1.33
2018-08-09T22:59:02.020Z,1.40
2018-08-09T23:01:29.367Z,1.47
2018-08-09T23:03:56.664Z,1.20
2018-08-09T23:06:24.033Z,1.67
2018-08-09T23:08:51.356Z,1.23
2018-08-09T23:11:18.716Z,0.90
2018-08-09T23:13:46.225Z,1.20
2018-08-09T23:16:13.591Z,1.07
2018-08-09T23:18:40.937Z,1.00
2018-08-09T23:21:08.226Z,0.90
2018-08-09T23:23:35.632Z,1.13
2018-08-09T23:26:03.003Z,1.00
2018-08-09T23:28:30.309Z,1.50
2018-08-09T23:30:57.573Z,1.17
2018-08-09T23:33:25.187Z,1.20
2018-08-09T23:35:52.657Z,1.20
2018-08-09T23:38:19.984Z,1.13
2018-08-09T23:40:47.282Z,1.27
2018-08-09T23:43:14.621Z,1.30
2018-08-09T23:45:42.028Z,1.10
2018-08-09T23:48:09.453Z,1.10
2018-08-09T23:50:36.749Z,1.20
2018-08-09T23:53:04.147Z,1.07
2018-08-09T23:55:31.501Z,1.20
2018-08-09T23:57:58.832Z,1.03
